RYR7AJ EDLV-LEIB
Flight info
| Callsign | RYR7AJ |
|---|---|
| Flight time | N/A |
| Altitude | 24000 |
| Route | VEBAK4S VEBAK Z283 LNO/N0456F330 Z283 RITAX UT27 ROUSY DCT GTQ DCT POGOL DCT LASAT DCT MOROK DCT GILIR DCT GEVEA DCT INCUS DCT BALSI DCT RETNO DCT TUPOX DCT MTG DCT DIVKO DCT VATIR/N0458F310 DCT PIVUS DCT SULID DCT DIMIB DCT POS |
| Aircraft | B738/M-SDE2E3FGHIRWXY/LB1 |
Departure
| Time | 2026-04-25 16:47 |
|---|---|
| Airport | Weeze (Niederrhein) Airport (EDLV) |
Arrival
| Time | N/A |
|---|---|
| Airport | Ibiza Airport (LEIB) |
| Time | Latitude | Longitude | Altitude | Speed | Heading |
|---|---|---|---|---|---|
| 2026-04-25 16:22 | 51.59995 | 6.14863 | 110 ft | 0 kts | 89° |
| 2026-04-25 16:22 | 51.59995 | 6.14862 | 112 ft | 0 kts | 89° |
| 2026-04-25 16:31 | 51.59995 | 6.14863 | 112 ft | 0 kts | 89° |
| 2026-04-25 16:33 | 51.59995 | 6.14862 | 112 ft | 0 kts | 89° |
| 2026-04-25 16:40 | 51.59995 | 6.14852 | 112 ft | 4 kts | 91° |
| 2026-04-25 16:40 | 51.59997 | 6.14810 | 111 ft | 3 kts | 95° |
| 2026-04-25 16:40 | 51.59998 | 6.14804 | 109 ft | 3 kts | 94° |
| 2026-04-25 16:43 | 51.59998 | 6.14805 | 109 ft | 0 kts | 90° |
| 2026-04-25 16:43 | 51.59998 | 6.14806 | 111 ft | 1 kts | 80° |
| 2026-04-25 16:44 | 51.60017 | 6.14806 | 109 ft | 5 kts | 356° |
| 2026-04-25 16:44 | 51.60041 | 6.14847 | 111 ft | 7 kts | 77° |
| 2026-04-25 16:44 | 51.60041 | 6.14981 | 112 ft | 17 kts | 93° |
| 2026-04-25 16:44 | 51.60036 | 6.15213 | 114 ft | 24 kts | 93° |
| 2026-04-25 16:45 | 51.60030 | 6.15484 | 115 ft | 24 kts | 91° |
| 2026-04-25 16:45 | 51.60025 | 6.15705 | 115 ft | 9 kts | 92° |
| 2026-04-25 16:45 | 51.60023 | 6.15802 | 116 ft | 9 kts | 91° |
| 2026-04-25 16:45 | 51.60028 | 6.15921 | 114 ft | 14 kts | 63° |
| 2026-04-25 16:46 | 51.60129 | 6.15950 | 113 ft | 16 kts | 3° |
| 2026-04-25 16:46 | 51.60209 | 6.15891 | 111 ft | 14 kts | 276° |
| 2026-04-25 16:46 | 51.60215 | 6.15657 | 118 ft | 44 kts | 272° |
| 2026-04-25 16:46 | 51.60226 | 6.15157 | 115 ft | 91 kts | 272° |
| 2026-04-25 16:47 | 51.60271 | 6.13220 | 197 ft | 159 kts | 273° |
| 2026-04-25 16:47 | 51.60283 | 6.11372 | 800 ft | 170 kts | 271° |
| 2026-04-25 16:47 | 51.60493 | 6.09522 | 1608 ft | 167 kts | 293° |
| 2026-04-25 16:47 | 51.61165 | 6.08021 | 2182 ft | 182 kts | 323° |
| 2026-04-25 16:48 | 51.62323 | 6.06906 | 2415 ft | 205 kts | 328° |
| 2026-04-25 16:48 | 51.63649 | 6.05982 | 2886 ft | 213 kts | 353° |
| 2026-04-25 16:48 | 51.65093 | 6.06552 | 3530 ft | 222 kts | 27° |
| 2026-04-25 16:48 | 51.66242 | 6.08270 | 4102 ft | 235 kts | 55° |
| 2026-04-25 16:49 | 51.66759 | 6.10872 | 4506 ft | 262 kts | 84° |
| 2026-04-25 16:49 | 51.66376 | 6.13822 | 5060 ft | 280 kts | 115° |
| 2026-04-25 16:49 | 51.65116 | 6.16247 | 5783 ft | 289 kts | 144° |
| 2026-04-25 16:49 | 51.63267 | 6.17453 | 6614 ft | 289 kts | 173° |
| 2026-04-25 16:50 | 51.61288 | 6.17639 | 7365 ft | 290 kts | 182° |
| 2026-04-25 16:50 | 51.59256 | 6.17545 | 8072 ft | 295 kts | 184° |
| 2026-04-25 16:50 | 51.57198 | 6.17401 | 8846 ft | 297 kts | 184° |
| 2026-04-25 16:50 | 51.55121 | 6.17272 | 9617 ft | 301 kts | 184° |
| 2026-04-25 16:51 | 51.53016 | 6.17167 | 10331 ft | 305 kts | 184° |
| 2026-04-25 16:51 | 51.50834 | 6.17080 | 10648 ft | 325 kts | 183° |
| 2026-04-25 16:51 | 51.48498 | 6.17005 | 10828 ft | 347 kts | 183° |
| 2026-04-25 16:51 | 51.46866 | 6.16961 | 10937 ft | 361 kts | 183° |
| 2026-04-25 16:52 | 51.43394 | 6.16880 | 11345 ft | 381 kts | 183° |
| 2026-04-25 16:52 | 51.40758 | 6.16830 | 11933 ft | 386 kts | 182° |
| 2026-04-25 16:52 | 51.38070 | 6.16785 | 12698 ft | 386 kts | 183° |
| 2026-04-25 16:52 | 51.35372 | 6.16742 | 13380 ft | 390 kts | 183° |
| 2026-04-25 16:53 | 51.29888 | 6.16653 | 14583 ft | 398 kts | 183° |
| 2026-04-25 16:53 | 51.27108 | 6.16607 | 15178 ft | 401 kts | 183° |
| 2026-04-25 16:53 | 51.24312 | 6.16561 | 15771 ft | 404 kts | 183° |
| 2026-04-25 16:54 | 51.21489 | 6.16515 | 16338 ft | 407 kts | 183° |
| 2026-04-25 16:54 | 51.18681 | 6.16468 | 16893 ft | 411 kts | 183° |
| 2026-04-25 16:54 | 51.15815 | 6.16352 | 17487 ft | 412 kts | 187° |
| 2026-04-25 16:54 | 51.13003 | 6.15601 | 18129 ft | 410 kts | 197° |
| 2026-04-25 16:55 | 51.10308 | 6.14116 | 18644 ft | 411 kts | 204° |
| 2026-04-25 16:55 | 51.07625 | 6.12465 | 19084 ft | 416 kts | 203° |
| 2026-04-25 16:55 | 51.04903 | 6.10846 | 19545 ft | 419 kts | 203° |
| 2026-04-25 16:55 | 51.02163 | 6.09214 | 20016 ft | 421 kts | 205° |
| 2026-04-25 16:56 | 50.99570 | 6.07074 | 20463 ft | 420 kts | 216° |
| 2026-04-25 16:56 | 50.97121 | 6.04518 | 20940 ft | 422 kts | 217° |
| 2026-04-25 16:56 | 50.94684 | 6.02000 | 21384 ft | 426 kts | 216° |
| 2026-04-25 16:56 | 50.92123 | 5.99593 | 21812 ft | 430 kts | 212° |
| 2026-04-25 16:57 | 50.89466 | 5.97364 | 22240 ft | 434 kts | 211° |
| 2026-04-25 16:57 | 50.87686 | 5.95902 | 22529 ft | 436 kts | 211° |
| 2026-04-25 16:57 | 50.84088 | 5.92901 | 23098 ft | 439 kts | 212° |
| 2026-04-25 16:57 | 50.81385 | 5.90610 | 23499 ft | 442 kts | 212° |
| 2026-04-25 16:58 | 50.78666 | 5.88302 | 23860 ft | 445 kts | 212° |
| 2026-04-25 16:58 | 50.75930 | 5.85987 | 24216 ft | 447 kts | 212° |
| 2026-04-25 16:58 | 50.73235 | 5.83672 | 24580 ft | 448 kts | 213° |
| 2026-04-25 16:58 | 50.70500 | 5.81293 | 24924 ft | 450 kts | 213° |
| 2026-04-25 16:59 | 50.67757 | 5.78906 | 25273 ft | 451 kts | 213° |
| 2026-04-25 16:59 | 50.65000 | 5.76516 | 25614 ft | 453 kts | 212° |
| 2026-04-25 16:59 | 50.62221 | 5.74148 | 25951 ft | 456 kts | 210° |
| 2026-04-25 16:59 | 50.59226 | 5.72384 | 26245 ft | 465 kts | 197° |
| 2026-04-25 17:00 | 50.56009 | 5.71629 | 26597 ft | 471 kts | 186° |
| 2026-04-25 17:00 | 50.52714 | 5.71870 | 26919 ft | 477 kts | 176° |
| 2026-04-25 17:00 | 50.49458 | 5.72553 | 27188 ft | 480 kts | 175° |
| 2026-04-25 17:00 | 50.46146 | 5.73288 | 27480 ft | 482 kts | 175° |
| 2026-04-25 17:01 | 50.42819 | 5.74005 | 27790 ft | 483 kts | 175° |
| 2026-04-25 17:01 | 50.39481 | 5.74687 | 28056 ft | 485 kts | 176° |
| 2026-04-25 17:01 | 50.36128 | 5.75341 | 28349 ft | 486 kts | 176° |
| 2026-04-25 17:01 | 50.32769 | 5.75980 | 28682 ft | 486 kts | 176° |
| 2026-04-25 17:02 | 50.29415 | 5.76616 | 29096 ft | 485 kts | 176° |
| 2026-04-25 17:02 | 50.26071 | 5.77252 | 29531 ft | 482 kts | 176° |
| 2026-04-25 17:02 | 50.22747 | 5.77884 | 29968 ft | 481 kts | 176° |
| 2026-04-25 17:02 | 50.20548 | 5.78300 | 30219 ft | 480 kts | 176° |
| 2026-04-25 17:03 | 50.16159 | 5.79127 | 30617 ft | 479 kts | 176° |
| 2026-04-25 17:03 | 50.12855 | 5.79749 | 30946 ft | 478 kts | 176° |
| 2026-04-25 17:03 | 50.09558 | 5.80372 | 31310 ft | 476 kts | 176° |
| 2026-04-25 17:03 | 50.06297 | 5.81313 | 31623 ft | 479 kts | 167° |
| 2026-04-25 17:04 | 50.03120 | 5.82895 | 31941 ft | 479 kts | 164° |
| 2026-04-25 17:04 | 49.99977 | 5.84575 | 32319 ft | 476 kts | 163° |
| 2026-04-25 17:04 | 49.96852 | 5.86261 | 32624 ft | 475 kts | 164° |
| 2026-04-25 17:04 | 49.93770 | 5.87904 | 32897 ft | 475 kts | 164° |
| 2026-04-25 17:05 | 49.90647 | 5.89546 | 33203 ft | 473 kts | 164° |
| 2026-04-25 17:05 | 49.84402 | 5.92772 | 33689 ft | 474 kts | 165° |
| 2026-04-25 17:05 | 49.81264 | 5.94378 | 33889 ft | 475 kts | 165° |
| 2026-04-25 17:06 | 49.78137 | 5.95976 | 34238 ft | 472 kts | 165° |
| 2026-04-25 17:06 | 49.75024 | 5.97567 | 34544 ft | 469 kts | 165° |
| 2026-04-25 17:06 | 49.71967 | 5.99127 | 34751 ft | 469 kts | 165° |
| 2026-04-25 17:06 | 49.68864 | 6.00709 | 34913 ft | 470 kts | 165° |
| 2026-04-25 17:07 | 49.65753 | 6.02293 | 35112 ft | 470 kts | 165° |
| 2026-04-25 17:07 | 49.62648 | 6.03873 | 35345 ft | 469 kts | 165° |
| 2026-04-25 17:07 | 49.59553 | 6.05446 | 35577 ft | 468 kts | 165° |
| 2026-04-25 17:07 | 49.56462 | 6.07015 | 35776 ft | 467 kts | 165° |
| 2026-04-25 17:08 | 49.53373 | 6.08580 | 35997 ft | 466 kts | 165° |
| 2026-04-25 17:08 | 49.50294 | 6.10156 | 36127 ft | 468 kts | 162° |
| 2026-04-25 17:08 | 49.44586 | 6.14955 | 36120 ft | 476 kts | 143° |
| 2026-04-25 17:09 | 49.39477 | 6.21381 | 36119 ft | 473 kts | 142° |
| 2026-04-25 17:09 | 49.34407 | 6.27791 | 36117 ft | 472 kts | 142° |
| 2026-04-25 17:10 | 49.29314 | 6.34111 | 36131 ft | 470 kts | 142° |
| 2026-04-25 17:10 | 49.24242 | 6.40342 | 36117 ft | 471 kts | 143° |
| 2026-04-25 17:11 | 49.19131 | 6.46600 | 36132 ft | 471 kts | 143° |
| 2026-04-25 17:11 | 49.14005 | 6.52865 | 36135 ft | 472 kts | 143° |
| 2026-04-25 17:12 | 49.08863 | 6.59135 | 36118 ft | 474 kts | 143° |
| 2026-04-25 17:12 | 49.03742 | 6.65365 | 36120 ft | 475 kts | 142° |
| 2026-04-25 17:13 | 49.00104 | 6.69169 | 36099 ft | 473 kts | 157° |
| 2026-04-25 17:13 | 48.94913 | 6.71461 | 36109 ft | 467 kts | 177° |
| 2026-04-25 17:13 | 48.91690 | 6.71537 | 36137 ft | 463 kts | 185° |
| 2026-04-25 17:14 | 48.85237 | 6.71147 | 36110 ft | 465 kts | 185° |
| 2026-04-25 17:14 | 48.78811 | 6.70816 | 36119 ft | 466 kts | 184° |
| 2026-04-25 17:15 | 48.72321 | 6.70549 | 36119 ft | 467 kts | 184° |
| 2026-04-25 17:15 | 48.65818 | 6.70301 | 36117 ft | 468 kts | 184° |
| 2026-04-25 17:16 | 48.59314 | 6.70051 | 36122 ft | 468 kts | 184° |
| 2026-04-25 17:16 | 48.52851 | 6.69801 | 36123 ft | 467 kts | 184° |
| 2026-04-25 17:17 | 48.46357 | 6.69549 | 36114 ft | 467 kts | 184° |
| 2026-04-25 17:17 | 48.39869 | 6.69299 | 36110 ft | 466 kts | 184° |
| 2026-04-25 17:18 | 48.33391 | 6.69055 | 36115 ft | 465 kts | 184° |
| 2026-04-25 17:18 | 48.26933 | 6.68813 | 36116 ft | 464 kts | 184° |
| 2026-04-25 17:19 | 48.20528 | 6.68573 | 36113 ft | 463 kts | 184° |
| 2026-04-25 17:19 | 48.14088 | 6.68333 | 36117 ft | 462 kts | 184° |
| 2026-04-25 17:20 | 48.07659 | 6.68094 | 36111 ft | 462 kts | 184° |
| 2026-04-25 17:20 | 48.01234 | 6.67856 | 36105 ft | 461 kts | 184° |
| 2026-04-25 17:21 | 47.94862 | 6.67619 | 36116 ft | 461 kts | 184° |
| 2026-04-25 17:21 | 47.88448 | 6.67382 | 36101 ft | 461 kts | 184° |
| 2026-04-25 17:22 | 47.83114 | 6.67186 | 36103 ft | 461 kts | 184° |
| 2026-04-25 17:22 | 47.75615 | 6.66910 | 36092 ft | 461 kts | 184° |
| 2026-04-25 17:23 | 47.69240 | 6.66676 | 36098 ft | 461 kts | 184° |
| 2026-04-25 17:23 | 47.62821 | 6.66441 | 36098 ft | 462 kts | 184° |
| 2026-04-25 17:24 | 47.56392 | 6.66207 | 36101 ft | 462 kts | 184° |
| 2026-04-25 17:24 | 47.49955 | 6.65972 | 36101 ft | 463 kts | 184° |
| 2026-04-25 17:25 | 47.43560 | 6.65674 | 36098 ft | 462 kts | 189° |
| 2026-04-25 17:25 | 47.40451 | 6.64665 | 36108 ft | 455 kts | 203° |
| 2026-04-25 17:25 | 47.37586 | 6.62737 | 36102 ft | 451 kts | 214° |
| 2026-04-25 17:26 | 47.32734 | 6.57035 | 36108 ft | 446 kts | 224° |
| 2026-04-25 17:26 | 47.28053 | 6.51025 | 36099 ft | 447 kts | 224° |
| 2026-04-25 17:27 | 47.23359 | 6.45111 | 36095 ft | 447 kts | 223° |
| 2026-04-25 17:27 | 47.20184 | 6.41149 | 36092 ft | 447 kts | 223° |
| 2026-04-25 17:28 | 47.13867 | 6.33289 | 36103 ft | 447 kts | 223° |
| 2026-04-25 17:28 | 47.09090 | 6.27440 | 36093 ft | 448 kts | 218° |
| 2026-04-25 17:29 | 47.06422 | 6.25166 | 36102 ft | 452 kts | 206° |
| 2026-04-25 17:29 | 47.03452 | 6.23624 | 36111 ft | 455 kts | 197° |
| 2026-04-25 17:29 | 46.97141 | 6.22485 | 36098 ft | 458 kts | 187° |
| 2026-04-25 17:30 | 46.90786 | 6.21760 | 36102 ft | 458 kts | 187° |
| 2026-04-25 17:30 | 46.84438 | 6.20980 | 36102 ft | 457 kts | 188° |
| 2026-04-25 17:31 | 46.78148 | 6.20155 | 36093 ft | 457 kts | 188° |
| 2026-04-25 17:31 | 46.71818 | 6.19310 | 36102 ft | 456 kts | 188° |
| 2026-04-25 17:32 | 46.65492 | 6.18469 | 36096 ft | 456 kts | 188° |
| 2026-04-25 17:32 | 46.59168 | 6.17632 | 36094 ft | 456 kts | 188° |
| 2026-04-25 17:33 | 46.52887 | 6.16804 | 36097 ft | 456 kts | 188° |
| 2026-04-25 17:33 | 46.46566 | 6.15972 | 36071 ft | 456 kts | 188° |
| 2026-04-25 17:34 | 46.40243 | 6.15142 | 36071 ft | 456 kts | 188° |
| 2026-04-25 17:34 | 46.33923 | 6.14314 | 36078 ft | 456 kts | 187° |
| 2026-04-25 17:35 | 46.27645 | 6.13493 | 36073 ft | 456 kts | 187° |
| 2026-04-25 17:35 | 46.21355 | 6.12440 | 36079 ft | 455 kts | 191° |
| 2026-04-25 17:36 | 46.15109 | 6.10995 | 36079 ft | 454 kts | 192° |
| 2026-04-25 17:36 | 46.08869 | 6.09550 | 36078 ft | 455 kts | 191° |
| 2026-04-25 17:37 | 46.02614 | 6.08156 | 36078 ft | 455 kts | 191° |
| 2026-04-25 17:37 | 45.96394 | 6.06790 | 36077 ft | 455 kts | 191° |
| 2026-04-25 17:38 | 45.92206 | 6.05871 | 36067 ft | 455 kts | 191° |
| 2026-04-25 17:38 | 45.83887 | 6.04047 | 36074 ft | 454 kts | 191° |
| 2026-04-25 17:39 | 45.77639 | 6.02669 | 36073 ft | 454 kts | 191° |
| 2026-04-25 17:39 | 45.71399 | 6.01293 | 36076 ft | 454 kts | 191° |
| 2026-04-25 17:40 | 45.65202 | 5.99931 | 36052 ft | 453 kts | 191° |
| 2026-04-25 17:40 | 45.58972 | 5.98565 | 36048 ft | 453 kts | 191° |
| 2026-04-25 17:41 | 45.52747 | 5.97202 | 36045 ft | 452 kts | 191° |
| 2026-04-25 17:41 | 45.46534 | 5.95804 | 36046 ft | 451 kts | 193° |
| 2026-04-25 17:42 | 45.40443 | 5.93972 | 36062 ft | 450 kts | 195° |
| 2026-04-25 17:42 | 45.34340 | 5.91985 | 36057 ft | 450 kts | 195° |
| 2026-04-25 17:43 | 45.28221 | 5.90031 | 36057 ft | 451 kts | 195° |
| 2026-04-25 17:43 | 45.22093 | 5.88115 | 36070 ft | 451 kts | 194° |
| 2026-04-25 17:44 | 45.15998 | 5.86226 | 36078 ft | 452 kts | 194° |
| 2026-04-25 17:44 | 45.09854 | 5.84327 | 36084 ft | 452 kts | 194° |
| 2026-04-25 17:45 | 45.05745 | 5.83059 | 36069 ft | 451 kts | 195° |
| 2026-04-25 17:45 | 44.97578 | 5.80542 | 36077 ft | 451 kts | 194° |
| 2026-04-25 17:46 | 44.91441 | 5.78656 | 36071 ft | 452 kts | 194° |
| 2026-04-25 17:46 | 44.85343 | 5.76786 | 36073 ft | 451 kts | 194° |
| 2026-04-25 17:47 | 44.79209 | 5.74909 | 36068 ft | 451 kts | 194° |
| 2026-04-25 17:47 | 44.73072 | 5.73035 | 36069 ft | 451 kts | 194° |
| 2026-04-25 17:48 | 44.63874 | 5.70234 | 36063 ft | 451 kts | 194° |
| 2026-04-25 17:49 | 44.57782 | 5.68383 | 36049 ft | 451 kts | 195° |
| 2026-04-25 17:49 | 44.51655 | 5.66526 | 36043 ft | 450 kts | 195° |
| 2026-04-25 17:50 | 44.45546 | 5.64679 | 36039 ft | 449 kts | 195° |
| 2026-04-25 17:50 | 44.39445 | 5.62835 | 36035 ft | 448 kts | 195° |
| 2026-04-25 17:51 | 44.33591 | 5.60184 | 36046 ft | 444 kts | 204° |
| 2026-04-25 17:51 | 44.27871 | 5.56920 | 36027 ft | 444 kts | 204° |
| 2026-04-25 17:52 | 44.22142 | 5.53700 | 36034 ft | 444 kts | 204° |
| 2026-04-25 17:52 | 44.16388 | 5.50536 | 36032 ft | 445 kts | 204° |
| 2026-04-25 17:53 | 44.10666 | 5.47412 | 36036 ft | 445 kts | 204° |
| 2026-04-25 17:53 | 44.04896 | 5.44270 | 36030 ft | 446 kts | 204° |
| 2026-04-25 17:54 | 43.99118 | 5.41127 | 36038 ft | 446 kts | 204° |
| 2026-04-25 17:54 | 43.93330 | 5.37991 | 36039 ft | 447 kts | 203° |
| 2026-04-25 17:55 | 43.87571 | 5.34884 | 36034 ft | 447 kts | 203° |
| 2026-04-25 17:55 | 43.81767 | 5.31760 | 36054 ft | 448 kts | 204° |
| 2026-04-25 17:56 | 43.75953 | 5.28634 | 36047 ft | 449 kts | 204° |
| 2026-04-25 17:56 | 43.70131 | 5.25510 | 36041 ft | 449 kts | 203° |
| 2026-04-25 17:57 | 43.64347 | 5.22413 | 36049 ft | 449 kts | 203° |
| 2026-04-25 17:57 | 43.58527 | 5.19303 | 36048 ft | 449 kts | 203° |
| 2026-04-25 17:58 | 43.52703 | 5.16197 | 36048 ft | 448 kts | 203° |
| 2026-04-25 17:58 | 43.46887 | 5.13101 | 36046 ft | 448 kts | 203° |
| 2026-04-25 17:59 | 43.41108 | 5.10032 | 36049 ft | 448 kts | 203° |
| 2026-04-25 17:59 | 43.35631 | 5.06107 | 36058 ft | 443 kts | 217° |
| 2026-04-25 18:00 | 43.31438 | 5.02064 | 36044 ft | 443 kts | 217° |
| 2026-04-25 18:00 | 43.25536 | 4.96397 | 36054 ft | 443 kts | 217° |
| 2026-04-25 18:01 | 43.20454 | 4.91603 | 36061 ft | 443 kts | 216° |
| 2026-04-25 18:01 | 43.15397 | 4.86864 | 36055 ft | 444 kts | 216° |
| 2026-04-25 18:02 | 43.10302 | 4.82095 | 36050 ft | 444 kts | 216° |
| 2026-04-25 18:02 | 43.05191 | 4.77354 | 36058 ft | 444 kts | 214° |
| 2026-04-25 18:03 | 42.99811 | 4.73153 | 36070 ft | 446 kts | 210° |
| 2026-04-25 18:03 | 42.94398 | 4.69143 | 36063 ft | 446 kts | 210° |
| 2026-04-25 18:04 | 42.88947 | 4.65079 | 36054 ft | 446 kts | 211° |
| 2026-04-25 18:04 | 42.83507 | 4.60988 | 36058 ft | 447 kts | 211° |
| 2026-04-25 18:05 | 42.78985 | 4.57582 | 36068 ft | 447 kts | 211° |
| 2026-04-25 18:05 | 42.72659 | 4.52824 | 36065 ft | 447 kts | 211° |
| 2026-04-25 18:06 | 42.67210 | 4.48737 | 36068 ft | 447 kts | 210° |
| 2026-04-25 18:06 | 42.61762 | 4.44658 | 36073 ft | 447 kts | 211° |
| 2026-04-25 18:07 | 42.56351 | 4.40615 | 36080 ft | 447 kts | 211° |
| 2026-04-25 18:07 | 42.50909 | 4.36558 | 36061 ft | 446 kts | 210° |
| 2026-04-25 18:08 | 42.45469 | 4.32509 | 36081 ft | 446 kts | 210° |
| 2026-04-25 18:08 | 42.40029 | 4.28469 | 36076 ft | 446 kts | 210° |
| 2026-04-25 18:09 | 42.34589 | 4.24438 | 36072 ft | 446 kts | 210° |
| 2026-04-25 18:09 | 42.29182 | 4.20439 | 36080 ft | 446 kts | 210° |
| 2026-04-25 18:10 | 42.23736 | 4.16419 | 36091 ft | 446 kts | 210° |
| 2026-04-25 18:10 | 42.18285 | 4.12400 | 36085 ft | 447 kts | 210° |
| 2026-04-25 18:11 | 42.12825 | 4.08381 | 36094 ft | 447 kts | 210° |
| 2026-04-25 18:11 | 42.07399 | 4.04392 | 36092 ft | 447 kts | 210° |
| 2026-04-25 18:12 | 42.01933 | 4.00382 | 36094 ft | 448 kts | 210° |
| 2026-04-25 18:12 | 41.96460 | 3.96370 | 36090 ft | 448 kts | 210° |
| 2026-04-25 18:13 | 41.90969 | 3.92377 | 36084 ft | 449 kts | 209° |
| 2026-04-25 18:13 | 41.85385 | 3.88593 | 36096 ft | 450 kts | 207° |
| 2026-04-25 18:14 | 41.77007 | 3.83034 | 36109 ft | 450 kts | 207° |
| 2026-04-25 18:14 | 41.71397 | 3.79287 | 36103 ft | 451 kts | 208° |
| 2026-04-25 18:15 | 41.65782 | 3.75530 | 36106 ft | 451 kts | 207° |
| 2026-04-25 18:15 | 41.60204 | 3.71802 | 36109 ft | 451 kts | 208° |
| 2026-04-25 18:16 | 41.54583 | 3.68055 | 36111 ft | 451 kts | 208° |
| 2026-04-25 18:17 | 41.46152 | 3.62445 | 36107 ft | 451 kts | 207° |
| 2026-04-25 18:17 | 41.40568 | 3.58741 | 36110 ft | 451 kts | 207° |
| 2026-04-25 18:18 | 41.34946 | 3.55019 | 36115 ft | 451 kts | 207° |
| 2026-04-25 18:18 | 41.29320 | 3.51300 | 36115 ft | 451 kts | 207° |
| 2026-04-25 18:19 | 41.23696 | 3.47588 | 36121 ft | 451 kts | 207° |
| 2026-04-25 18:19 | 41.18048 | 3.44086 | 36107 ft | 452 kts | 200° |
| 2026-04-25 18:20 | 41.11915 | 3.42232 | 36118 ft | 453 kts | 192° |
| 2026-04-25 18:20 | 41.05725 | 3.40699 | 36124 ft | 452 kts | 191° |
| 2026-04-25 18:21 | 40.99541 | 3.39124 | 36120 ft | 452 kts | 192° |
| 2026-04-25 18:21 | 40.93365 | 3.37511 | 36117 ft | 452 kts | 192° |
| 2026-04-25 18:22 | 40.87235 | 3.35901 | 36121 ft | 452 kts | 192° |
| 2026-04-25 18:22 | 40.81063 | 3.34283 | 36120 ft | 452 kts | 192° |
| 2026-04-25 18:23 | 40.74899 | 3.32671 | 36125 ft | 452 kts | 192° |
| 2026-04-25 18:23 | 40.68735 | 3.31063 | 36124 ft | 451 kts | 192° |
| 2026-04-25 18:24 | 40.62575 | 3.29460 | 36123 ft | 451 kts | 192° |
| 2026-04-25 18:24 | 40.56457 | 3.27870 | 36122 ft | 451 kts | 192° |
| 2026-04-25 18:25 | 40.50297 | 3.26272 | 36122 ft | 451 kts | 192° |
| 2026-04-25 18:25 | 40.44140 | 3.24678 | 36126 ft | 451 kts | 192° |
| 2026-04-25 18:26 | 40.37985 | 3.23087 | 36124 ft | 451 kts | 192° |
| 2026-04-25 18:26 | 40.31873 | 3.21510 | 36121 ft | 451 kts | 191° |
| 2026-04-25 18:27 | 40.25722 | 3.19932 | 36121 ft | 450 kts | 192° |
| 2026-04-25 18:27 | 40.19573 | 3.18356 | 36121 ft | 450 kts | 192° |
| 2026-04-25 18:28 | 40.13428 | 3.16784 | 36123 ft | 450 kts | 191° |
| 2026-04-25 18:28 | 40.07333 | 3.15227 | 36120 ft | 450 kts | 191° |
| 2026-04-25 18:29 | 39.98120 | 3.12879 | 36122 ft | 449 kts | 191° |
| 2026-04-25 18:30 | 39.89277 | 3.09211 | 36163 ft | 446 kts | 211° |
| 2026-04-25 18:30 | 39.86594 | 3.07169 | 36117 ft | 447 kts | 210° |
| 2026-04-25 18:30 | 39.81242 | 3.03162 | 36126 ft | 447 kts | 210° |
| 2026-04-25 18:31 | 39.75819 | 2.99190 | 36122 ft | 447 kts | 209° |
| 2026-04-25 18:31 | 39.70388 | 2.95247 | 36115 ft | 447 kts | 209° |
| 2026-04-25 18:32 | 39.64961 | 2.91315 | 36123 ft | 446 kts | 209° |
| 2026-04-25 18:32 | 39.59539 | 2.87390 | 35416 ft | 454 kts | 209° |
| 2026-04-25 18:33 | 39.56783 | 2.85398 | 34828 ft | 453 kts | 209° |
| 2026-04-25 18:33 | 39.54032 | 2.83410 | 34211 ft | 454 kts | 209° |
| 2026-04-25 18:33 | 39.51272 | 2.81417 | 33496 ft | 455 kts | 209° |
| 2026-04-25 18:33 | 39.48505 | 2.79422 | 32786 ft | 456 kts | 209° |
| 2026-04-25 18:34 | 39.45734 | 2.77426 | 32095 ft | 456 kts | 209° |
| 2026-04-25 18:34 | 39.43080 | 2.75183 | 31371 ft | 458 kts | 222° |
| 2026-04-25 18:34 | 39.40987 | 2.72084 | 30697 ft | 458 kts | 232° |
| 2026-04-25 18:34 | 39.39054 | 2.68889 | 30187 ft | 455 kts | 232° |
| 2026-04-25 18:35 | 39.37090 | 2.65686 | 29589 ft | 452 kts | 231° |
| 2026-04-25 18:35 | 39.35135 | 2.62537 | 29080 ft | 447 kts | 231° |
| 2026-04-25 18:35 | 39.33187 | 2.59428 | 28587 ft | 443 kts | 231° |
| 2026-04-25 18:35 | 39.31251 | 2.56357 | 28065 ft | 439 kts | 231° |
| 2026-04-25 18:36 | 39.29330 | 2.53318 | 27569 ft | 435 kts | 231° |
| 2026-04-25 18:36 | 39.27420 | 2.50304 | 27075 ft | 432 kts | 231° |
| 2026-04-25 18:36 | 39.25548 | 2.47351 | 26590 ft | 429 kts | 231° |
| 2026-04-25 18:36 | 39.23664 | 2.44381 | 26105 ft | 426 kts | 231° |
| 2026-04-25 18:37 | 39.21795 | 2.41436 | 25623 ft | 424 kts | 231° |
| 2026-04-25 18:37 | 39.19929 | 2.38498 | 25143 ft | 422 kts | 231° |
| 2026-04-25 18:37 | 39.18078 | 2.35586 | 24670 ft | 420 kts | 230° |
| 2026-04-25 18:37 | 39.16227 | 2.32677 | 24172 ft | 419 kts | 230° |
| 2026-04-25 18:38 | 39.14386 | 2.29786 | 23692 ft | 417 kts | 230° |
| 2026-04-25 18:38 | 39.12545 | 2.26898 | 23123 ft | 416 kts | 230° |
| 2026-04-25 18:38 | 39.10738 | 2.24065 | 22620 ft | 413 kts | 230° |
| 2026-04-25 18:38 | 39.08918 | 2.21215 | 22144 ft | 411 kts | 230° |
| 2026-04-25 18:39 | 39.07111 | 2.18387 | 21669 ft | 408 kts | 230° |
| 2026-04-25 18:39 | 39.05315 | 2.15579 | 21197 ft | 405 kts | 230° |
| 2026-04-25 18:39 | 39.03530 | 2.12792 | 20734 ft | 402 kts | 230° |
| 2026-04-25 18:39 | 39.01757 | 2.10024 | 20274 ft | 400 kts | 230° |
| 2026-04-25 18:40 | 38.99994 | 2.07275 | 19817 ft | 398 kts | 230° |
| 2026-04-25 18:40 | 38.98832 | 2.05464 | 19517 ft | 396 kts | 230° |
| 2026-04-25 18:40 | 38.97082 | 2.02738 | 19064 ft | 394 kts | 230° |
| 2026-04-25 18:40 | 38.94775 | 1.99148 | 18453 ft | 392 kts | 230° |
| 2026-04-25 18:41 | 38.93040 | 1.96452 | 17937 ft | 391 kts | 230° |
| 2026-04-25 18:41 | 38.91873 | 1.94638 | 17607 ft | 389 kts | 230° |
| 2026-04-25 18:41 | 38.90457 | 1.91757 | 17111 ft | 388 kts | 249° |
| 2026-04-25 18:41 | 38.89725 | 1.88454 | 16737 ft | 383 kts | 256° |
| 2026-04-25 18:42 | 38.89079 | 1.85142 | 16273 ft | 381 kts | 256° |
| 2026-04-25 18:42 | 38.88644 | 1.82917 | 15965 ft | 380 kts | 255° |
| 2026-04-25 18:42 | 38.87782 | 1.78583 | 15387 ft | 377 kts | 255° |
| 2026-04-25 18:42 | 38.86908 | 1.74282 | 14803 ft | 375 kts | 255° |
| 2026-04-25 18:43 | 38.86460 | 1.72101 | 14524 ft | 374 kts | 254° |
| 2026-04-25 18:43 | 38.85796 | 1.68884 | 14084 ft | 372 kts | 254° |
| 2026-04-25 18:43 | 38.85134 | 1.65677 | 13608 ft | 371 kts | 254° |
| 2026-04-25 18:43 | 38.84480 | 1.62524 | 13149 ft | 370 kts | 254° |
| 2026-04-25 18:44 | 38.83821 | 1.59351 | 12697 ft | 367 kts | 254° |
| 2026-04-25 18:44 | 38.83141 | 1.56209 | 12296 ft | 364 kts | 253° |
| 2026-04-25 18:44 | 38.82450 | 1.53115 | 12068 ft | 356 kts | 253° |
| 2026-04-25 18:44 | 38.81780 | 1.50113 | 11910 ft | 346 kts | 253° |
| 2026-04-25 18:45 | 38.81129 | 1.47187 | 11762 ft | 337 kts | 253° |
| 2026-04-25 18:45 | 38.80495 | 1.44338 | 11620 ft | 328 kts | 254° |
| 2026-04-25 18:45 | 38.79750 | 1.41628 | 11475 ft | 319 kts | 244° |
| 2026-04-25 18:45 | 38.78747 | 1.39187 | 11351 ft | 310 kts | 240° |
| 2026-04-25 18:46 | 38.77697 | 1.36811 | 11216 ft | 303 kts | 240° |
| 2026-04-25 18:46 | 38.76689 | 1.34486 | 11090 ft | 295 kts | 240° |
| 2026-04-25 18:46 | 38.75722 | 1.32196 | 10966 ft | 288 kts | 241° |
| 2026-04-25 18:46 | 38.74790 | 1.29961 | 10846 ft | 281 kts | 241° |
| 2026-04-25 18:47 | 38.73877 | 1.27761 | 10537 ft | 282 kts | 242° |
| 2026-04-25 18:47 | 38.72941 | 1.25515 | 10084 ft | 289 kts | 242° |
| 2026-04-25 18:47 | 38.71984 | 1.23218 | 9586 ft | 296 kts | 242° |
| 2026-04-25 18:47 | 38.71006 | 1.20875 | 9091 ft | 302 kts | 242° |
| 2026-04-25 18:48 | 38.70010 | 1.18487 | 8591 ft | 305 kts | 241° |
| 2026-04-25 18:48 | 38.69026 | 1.16131 | 8088 ft | 303 kts | 241° |
| 2026-04-25 18:48 | 38.68033 | 1.13758 | 7593 ft | 301 kts | 241° |
| 2026-04-25 18:48 | 38.67049 | 1.11406 | 7108 ft | 299 kts | 241° |
| 2026-04-25 18:49 | 38.66354 | 1.08928 | 6589 ft | 298 kts | 266° |
| 2026-04-25 18:49 | 38.66727 | 1.06377 | 6096 ft | 293 kts | 298° |